»·PEaware :: SWA1649 KPHX-KSAN

SWA1649 :: KPHX-KSAN

FLIGHT INFORMATION

Flight Status: Arrived
Operator:
Southwest Airlines
More flights by this operator :: More flights under this callsign
Pilot: Walter P. (10403)
Aircraft: BOEING 737-200
(B732)
More flights by this aircraft type
Origin: KPHX Phoenix Sky Harbor Intl
United States
Destination: KSAN San Diego Intl-Lindbergh
United States
More flights between these airports :: More routes between these airports
Route: +FYRBD1 MOHAK J2 HOGGZ LUCKI1
File this flight plan on PilotEdge
Remarks: RMK / SIMBRIEF
Altitude:
(Current/Filed)
32,000ft
Speed:
(Current/Filed)
431kts
Departed: 23-Jun-19 01:29 PM
Arrived: 23-Jun-19 02:53 PM
Distance/Time
Traveled:
264nm/1:24
Distance/Time
To Go:
Arrived

Flight Plot

Page will automatically refresh every two minutes.


Map Options




Map Legend


Flown Route
Filed Route
Departure Airport
Arrival Airport
Navaid (VOR, NDB)
Fix

Horizontal Profiles

Position Reports

Time Latitude Longitude Heading Altitude Ground
Speed
23-Jun-19 12:58 33.434293 -111.999847 90 1118ft 0kts
23-Jun-19 12:59 33.434293 -111.999847 90 1118ft 0kts
23-Jun-19 13:00 33.434293 -111.999847 90 1118ft 0kts
23-Jun-19 13:01 33.434293 -111.999847 90 1118ft 0kts
23-Jun-19 13:02 33.434293 -111.999847 90 1118ft 0kts
23-Jun-19 13:03 33.434293 -111.999847 90 1118ft 0kts
23-Jun-19 13:04 33.434293 -111.999847 90 1118ft 0kts
23-Jun-19 13:05 33.434293 -111.999847 90 1118ft 0kts
23-Jun-19 13:06 33.434293 -111.999847 90 1118ft 0kts
23-Jun-19 13:07 33.434293 -111.999847 90 1118ft 0kts
23-Jun-19 13:08 33.434293 -111.999847 90 1118ft 0kts
23-Jun-19 13:09 33.434293 -111.999847 90 1118ft 0kts
23-Jun-19 13:10 33.434293 -111.999847 90 1118ft 0kts
23-Jun-19 13:11 33.434293 -111.999847 90 1118ft 0kts
23-Jun-19 13:12 33.434293 -111.999847 90 1118ft 0kts
23-Jun-19 13:13 33.434293 -111.999847 90 1118ft 0kts
23-Jun-19 13:15 33.434293 -111.999847 90 1118ft 0kts
23-Jun-19 13:16 33.434293 -111.999843 90 1118ft 0kts
23-Jun-19 13:17 33.434350 -112.000313 121 1118ft 2kts
23-Jun-19 13:18 33.434477 -112.000473 144 1118ft 0kts
23-Jun-19 13:19 33.434476 -112.000472 144 1118ft 0kts
23-Jun-19 13:20 33.434476 -112.000472 144 1118ft 0kts
23-Jun-19 13:21 33.434476 -112.000472 144 1118ft 0kts
23-Jun-19 13:22 33.434476 -112.000472 144 1118ft 0kts
23-Jun-19 13:23 33.433110 -112.000392 200 1118ft 12kts
23-Jun-19 13:24 33.432875 -112.005135 271 1118ft 20kts
23-Jun-19 13:25 33.432866 -112.013333 268 1118ft 26kts
23-Jun-19 13:26 33.432891 -112.021706 270 1118ft 23kts
23-Jun-19 13:27 33.431996 -112.026967 179 1118ft 0kts
23-Jun-19 13:28 33.431036 -112.026343 89 1118ft 11kts
23-Jun-19 13:29 33.431154 -111.995746 88 1301ft 188kts
23-Jun-19 13:30 33.433554 -111.925457 89 3741ft 242kts
23-Jun-19 13:31 33.410244 -111.854434 152 6245ft 248kts
23-Jun-19 13:32 33.355766 -111.885123 260 8488ft 256kts
23-Jun-19 13:32 33.358906 -111.958585 275 9915ft 289kts
23-Jun-19 13:34 33.333427 -112.064058 236 12871ft 309kts
23-Jun-19 13:35 33.278168 -112.154264 236 14662ft 343kts
23-Jun-19 13:36 33.221018 -112.247127 236 16879ft 353kts
23-Jun-19 13:36 33.171864 -112.326817 236 18655ft 361kts
23-Jun-19 13:37 33.111427 -112.424550 237 20729ft 370kts
23-Jun-19 13:39 33.037976 -112.542930 237 22953ft 376kts
23-Jun-19 13:39 32.985285 -112.627690 237 24213ft 385kts
23-Jun-19 13:40 32.947792 -112.745427 261 25673ft 383kts
23-Jun-19 13:41 32.929888 -112.871803 263 27071ft 387kts
23-Jun-19 13:42 32.912944 -112.996174 263 28898ft 375kts
23-Jun-19 13:43 32.896307 -113.117637 263 30433ft 366kts
23-Jun-19 13:44 32.879950 -113.236215 263 31706ft 360kts
23-Jun-19 13:45 32.863255 -113.356523 263 31935ft 380kts
23-Jun-19 13:46 32.845371 -113.484304 263 31933ft 401kts
23-Jun-19 13:47 32.826500 -113.617995 263 31930ft 418kts
23-Jun-19 13:48 32.807105 -113.754382 262 31932ft 415kts
23-Jun-19 13:49 32.788979 -113.880945 262 31930ft 412kts
23-Jun-19 13:50 32.775904 -114.014997 270 31929ft 405kts
23-Jun-19 13:51 32.778093 -114.147691 273 31925ft 400kts
23-Jun-19 13:52 32.783290 -114.279498 273 31919ft 396kts
23-Jun-19 13:53 32.795228 -114.408439 285 31926ft 391kts
23-Jun-19 13:54 32.827474 -114.531343 288 31917ft 387kts
23-Jun-19 13:55 32.860404 -114.651624 287 31917ft 384kts
23-Jun-19 13:56 32.877310 -114.776421 271 31923ft 383kts
23-Jun-19 13:57 32.875394 -114.903443 269 31922ft 382kts
23-Jun-19 13:58 32.872490 -115.031794 269 31929ft 396kts
23-Jun-19 13:59 32.869271 -115.165828 269 31910ft 407kts
23-Jun-19 14:00 32.865902 -115.299996 269 29780ft 403kts
23-Jun-19 14:01 32.852241 -115.430165 262 27047ft 394kts
23-Jun-19 14:02 32.832928 -115.557454 261 24583ft 386kts
23-Jun-19 14:03 32.813042 -115.679088 260 22867ft 377kts
23-Jun-19 14:04 32.792817 -115.801875 260 21073ft 369kts
23-Jun-19 14:05 32.779796 -115.921932 266 19289ft 362kts
23-Jun-19 14:06 32.770937 -116.038519 266 17640ft 341kts
23-Jun-19 14:07 32.762455 -116.150418 266 15230ft 337kts
23-Jun-19 14:08 32.754027 -116.260151 266 13823ft 329kts
23-Jun-19 14:09 32.745664 -116.368163 266 12275ft 326kts
23-Jun-19 14:10 32.737791 -116.469066 265 10751ft 302kts
23-Jun-19 14:11 32.728871 -116.567327 264 9616ft 295kts
23-Jun-19 14:12 32.719785 -116.662665 264 8457ft 292kts
23-Jun-19 14:13 32.712348 -116.756723 264 7890ft 272kts
23-Jun-19 14:14 32.697914 -116.847634 250 6796ft 278kts
23-Jun-19 14:15 32.674405 -116.926915 251 6146ft 240kts
23-Jun-19 14:16 32.679201 -116.999475 305 4751ft 231kts
23-Jun-19 14:17 32.703538 -117.066458 286 3595ft 219kts
23-Jun-19 14:18 32.717775 -117.126792 287 2683ft 176kts
23-Jun-19 14:19 32.730237 -117.175546 285 807ft 130kts
23-Jun-19 14:20 32.746765 -117.227947 301 2124ft 178kts
23-Jun-19 14:21 32.778265 -117.289168 302 3811ft 237kts
23-Jun-19 14:22 32.814241 -117.359810 302 5003ft 269kts
23-Jun-19 14:23 32.851055 -117.431654 310 4984ft 239kts
23-Jun-19 14:24 32.899735 -117.418114 83 5017ft 223kts
23-Jun-19 14:25 32.889153 -117.346205 101 4999ft 225kts
23-Jun-19 14:26 32.876010 -117.273524 101 4992ft 224kts
23-Jun-19 14:27 32.863117 -117.202332 101 4999ft 222kts
23-Jun-19 14:28 32.849952 -117.129615 101 4991ft 222kts
23-Jun-19 14:29 32.836874 -117.057638 101 4996ft 222kts
23-Jun-19 14:30 32.823773 -116.985532 101 4996ft 222kts
23-Jun-19 14:31 32.810820 -116.914717 101 4995ft 222kts
23-Jun-19 14:32 32.797575 -116.842800 102 4995ft 222kts
23-Jun-19 14:33 32.744805 -116.823811 191 4999ft 230kts
23-Jun-19 14:34 32.682370 -116.840817 191 4995ft 228kts
23-Jun-19 14:35 32.620623 -116.857747 191 4999ft 228kts
23-Jun-19 14:36 32.556906 -116.874934 191 4995ft 233kts
23-Jun-19 14:37 32.494324 -116.894940 216 4994ft 233kts
23-Jun-19 14:38 32.504513 -116.953780 351 5025ft 225kts
23-Jun-19 14:39 32.567964 -116.957146 0 4992ft 228kts
23-Jun-19 14:40 32.630454 -116.959342 0 4997ft 224kts
23-Jun-19 14:41 32.691211 -116.969852 315 5011ft 229kts
23-Jun-19 14:42 32.722653 -117.032652 344 4553ft 227kts
23-Jun-19 14:43 32.756054 -116.989220 98 3811ft 220kts
23-Jun-19 14:44 32.745465 -116.918894 99 3795ft 213kts
23-Jun-19 14:45 32.731204 -116.850147 127 3797ft 219kts
23-Jun-19 14:46 32.681986 -116.865738 248 3823ft 234kts
23-Jun-19 14:47 32.668316 -116.938998 285 3774ft 217kts
23-Jun-19 14:48 32.685312 -117.004541 299 3697ft 193kts
23-Jun-19 14:49 32.703451 -117.064582 291 3002ft 191kts
23-Jun-19 14:50 32.716902 -117.123399 287 1887ft 162kts
23-Jun-19 14:51 32.728031 -117.166805 287 498ft 122kts
23-Jun-19 14:52 32.735354 -117.197124 287 26ft 40kts
23-Jun-19 14:53 32.736310 -117.204116 193 26ft 5kts
23-Jun-19 14:54 32.734735 -117.205447 206 26ft 13kts
23-Jun-19 14:55 32.734170 -117.204694 113 26ft 0kts
23-Jun-19 14:56 32.734170 -117.204694 113 26ft 0kts
23-Jun-19 14:57 32.734170 -117.204694 113 26ft 0kts
23-Jun-19 14:58 32.734170 -117.204694 113 26ft 0kts

Navigation Log

Ident Type
Flight plan parsing failed, navigation log unavailable